sensor_id;sensor_type;location;lat;lon;timestamp;P1;durP1;ratioP1;P2;durP2;ratioP2
21438;SDS011;10880;50.302;18.736;2023-05-07T00:01:32;2.83;;;2.50;;
21438;SDS011;10880;50.302;18.736;2023-05-07T00:04:05;2.70;;;2.50;;
21438;SDS011;10880;50.302;18.736;2023-05-07T00:06:59;2.80;;;2.60;;
21438;SDS011;10880;50.302;18.736;2023-05-07T00:09:32;2.60;;;2.40;;
21438;SDS011;10880;50.302;18.736;2023-05-07T00:12:26;2.60;;;2.40;;
21438;SDS011;10880;50.302;18.736;2023-05-07T00:15:00;2.70;;;2.50;;
21438;SDS011;10880;50.302;18.736;2023-05-07T00:17:55;3.03;;;2.73;;
21438;SDS011;10880;50.302;18.736;2023-05-07T00:20:30;2.70;;;2.50;;
21438;SDS011;10880;50.302;18.736;2023-05-07T00:23:27;3.17;;;2.67;;
21438;SDS011;10880;50.302;18.736;2023-05-07T00:26:00;2.43;;;2.23;;
21438;SDS011;10880;50.302;18.736;2023-05-07T00:28:55;2.90;;;2.60;;
21438;SDS011;10880;50.302;18.736;2023-05-07T00:31:28;2.93;;;2.67;;
21438;SDS011;10880;50.302;18.736;2023-05-07T00:34:21;3.47;;;2.83;;
21438;SDS011;10880;50.302;18.736;2023-05-07T00:36:55;3.23;;;2.80;;
21438;SDS011;10880;50.302;18.736;2023-05-07T00:39:48;5.03;;;3.00;;
21438;SDS011;10880;50.302;18.736;2023-05-07T00:42:21;3.63;;;3.17;;
21438;SDS011;10880;50.302;18.736;2023-05-07T00:45:14;3.27;;;2.83;;
21438;SDS011;10880;50.302;18.736;2023-05-07T00:47:49;4.20;;;3.17;;
21438;SDS011;10880;50.302;18.736;2023-05-07T00:50:42;5.20;;;3.30;;
21438;SDS011;10880;50.302;18.736;2023-05-07T00:53:16;3.93;;;3.00;;
21438;SDS011;10880;50.302;18.736;2023-05-07T00:56:11;3.00;;;2.70;;
21438;SDS011;10880;50.302;18.736;2023-05-07T00:58:45;2.93;;;2.70;;
21438;SDS011;10880;50.302;18.736;2023-05-07T01:01:38;3.07;;;2.63;;
21438;SDS011;10880;50.302;18.736;2023-05-07T01:04:13;2.97;;;2.63;;
21438;SDS011;10880;50.302;18.736;2023-05-07T01:07:06;2.80;;;2.50;;
21438;SDS011;10880;50.302;18.736;2023-05-07T01:09:40;2.60;;;2.40;;
21438;SDS011;10880;50.302;18.736;2023-05-07T01:12:33;2.63;;;2.43;;
21438;SDS011;10880;50.302;18.736;2023-05-07T01:15:08;2.50;;;2.30;;
21438;SDS011;10880;50.302;18.736;2023-05-07T01:18:02;2.77;;;2.57;;
21438;SDS011;10880;50.302;18.736;2023-05-07T01:20:35;2.77;;;2.57;;
21438;SDS011;10880;50.302;18.736;2023-05-07T01:23:29;2.80;;;2.50;;
21438;SDS011;10880;50.302;18.736;2023-05-07T01:26:03;2.67;;;2.47;;
21438;SDS011;10880;50.302;18.736;2023-05-07T01:28:58;2.70;;;2.50;;
21438;SDS011;10880;50.302;18.736;2023-05-07T01:31:32;2.60;;;2.40;;
21438;SDS011;10880;50.302;18.736;2023-05-07T01:34:31;2.60;;;2.40;;
21438;SDS011;10880;50.302;18.736;2023-05-07T01:37:10;2.63;;;2.43;;
21438;SDS011;10880;50.302;18.736;2023-05-07T01:40:04;2.50;;;2.30;;
21438;SDS011;10880;50.302;18.736;2023-05-07T01:42:40;2.70;;;2.40;;
21438;SDS011;10880;50.302;18.736;2023-05-07T01:45:38;4.30;;;3.23;;
21438;SDS011;10880;50.302;18.736;2023-05-07T01:48:14;2.70;;;2.50;;
21438;SDS011;10880;50.302;18.736;2023-05-07T01:51:08;2.40;;;2.20;;
21438;SDS011;10880;50.302;18.736;2023-05-07T01:53:42;2.67;;;2.47;;
21438;SDS011;10880;50.302;18.736;2023-05-07T01:56:37;2.80;;;2.43;;
21438;SDS011;10880;50.302;18.736;2023-05-07T01:59:10;2.53;;;2.33;;
21438;SDS011;10880;50.302;18.736;2023-05-07T02:02:03;2.40;;;2.20;;
21438;SDS011;10880;50.302;18.736;2023-05-07T02:04:38;2.50;;;2.30;;
21438;SDS011;10880;50.302;18.736;2023-05-07T02:07:35;2.60;;;2.40;;
21438;SDS011;10880;50.302;18.736;2023-05-07T02:10:08;2.43;;;2.23;;
21438;SDS011;10880;50.302;18.736;2023-05-07T02:13:02;3.10;;;2.80;;
21438;SDS011;10880;50.302;18.736;2023-05-07T02:15:35;2.80;;;2.60;;
21438;SDS011;10880;50.302;18.736;2023-05-07T02:18:28;2.50;;;2.30;;
21438;SDS011;10880;50.302;18.736;2023-05-07T02:21:01;2.60;;;2.40;;
21438;SDS011;10880;50.302;18.736;2023-05-07T02:23:54;2.50;;;2.30;;
21438;SDS011;10880;50.302;18.736;2023-05-07T02:26:27;2.40;;;2.20;;
21438;SDS011;10880;50.302;18.736;2023-05-07T02:29:20;2.30;;;2.10;;
21438;SDS011;10880;50.302;18.736;2023-05-07T02:31:53;2.10;;;1.90;;
21438;SDS011;10880;50.302;18.736;2023-05-07T02:34:49;2.20;;;2.00;;
21438;SDS011;10880;50.302;18.736;2023-05-07T02:37:23;2.27;;;2.07;;
21438;SDS011;10880;50.302;18.736;2023-05-07T02:40:16;3.20;;;2.17;;
21438;SDS011;10880;50.302;18.736;2023-05-07T02:42:49;3.07;;;2.20;;
21438;SDS011;10880;50.302;18.736;2023-05-07T02:45:45;2.80;;;2.33;;
21438;SDS011;10880;50.302;18.736;2023-05-07T02:48:19;3.70;;;2.40;;
21438;SDS011;10880;50.302;18.736;2023-05-07T02:51:12;2.63;;;2.17;;
21438;SDS011;10880;50.302;18.736;2023-05-07T02:53:45;2.10;;;2.00;;
21438;SDS011;10880;50.302;18.736;2023-05-07T02:56:41;2.20;;;2.00;;
21438;SDS011;10880;50.302;18.736;2023-05-07T02:59:14;2.10;;;2.00;;
21438;SDS011;10880;50.302;18.736;2023-05-07T03:02:12;2.20;;;2.00;;
21438;SDS011;10880;50.302;18.736;2023-05-07T03:04:45;2.27;;;2.10;;
21438;SDS011;10880;50.302;18.736;2023-05-07T03:07:41;2.47;;;1.90;;
21438;SDS011;10880;50.302;18.736;2023-05-07T03:10:17;1.90;;;1.80;;
21438;SDS011;10880;50.302;18.736;2023-05-07T03:13:10;1.80;;;1.70;;
21438;SDS011;10880;50.302;18.736;2023-05-07T03:15:43;1.70;;;1.60;;
21438;SDS011;10880;50.302;18.736;2023-05-07T03:18:36;1.70;;;1.60;;
21438;SDS011;10880;50.302;18.736;2023-05-07T03:21:09;1.80;;;1.70;;
21438;SDS011;10880;50.302;18.736;2023-05-07T03:24:05;1.90;;;1.80;;
21438;SDS011;10880;50.302;18.736;2023-05-07T03:26:39;1.90;;;1.80;;
21438;SDS011;10880;50.302;18.736;2023-05-07T03:29:32;2.27;;;2.17;;
21438;SDS011;10880;50.302;18.736;2023-05-07T03:32:05;2.27;;;2.00;;
21438;SDS011;10880;50.302;18.736;2023-05-07T03:35:07;1.80;;;1.70;;
21438;SDS011;10880;50.302;18.736;2023-05-07T03:38:00;1.90;;;1.80;;
21438;SDS011;10880;50.302;18.736;2023-05-07T03:40:36;2.57;;;2.27;;
21438;SDS011;10880;50.302;18.736;2023-05-07T03:43:29;1.90;;;1.80;;
21438;SDS011;10880;50.302;18.736;2023-05-07T03:46:06;2.40;;;2.20;;
21438;SDS011;10880;50.302;18.736;2023-05-07T03:49:00;1.90;;;1.80;;
21438;SDS011;10880;50.302;18.736;2023-05-07T03:51:33;2.20;;;2.00;;
21438;SDS011;10880;50.302;18.736;2023-05-07T03:54:27;2.20;;;2.00;;
21438;SDS011;10880;50.302;18.736;2023-05-07T03:57:00;2.30;;;2.10;;
21438;SDS011;10880;50.302;18.736;2023-05-07T03:59:56;2.00;;;1.90;;
21438;SDS011;10880;50.302;18.736;2023-05-07T04:02:59;1.87;;;1.77;;
21438;SDS011;10880;50.302;18.736;2023-05-07T04:05:32;2.37;;;2.17;;
21438;SDS011;10880;50.302;18.736;2023-05-07T04:08:25;2.00;;;1.80;;
21438;SDS011;10880;50.302;18.736;2023-05-07T04:10:58;2.20;;;2.00;;
21438;SDS011;10880;50.302;18.736;2023-05-07T04:13:54;2.23;;;2.03;;
21438;SDS011;10880;50.302;18.736;2023-05-07T04:16:34;2.00;;;1.90;;
21438;SDS011;10880;50.302;18.736;2023-05-07T04:19:33;1.80;;;1.70;;
21438;SDS011;10880;50.302;18.736;2023-05-07T04:22:06;1.80;;;1.70;;
21438;SDS011;10880;50.302;18.736;2023-05-07T04:25:02;1.80;;;1.70;;
21438;SDS011;10880;50.302;18.736;2023-05-07T04:27:39;2.13;;;1.63;;
21438;SDS011;10880;50.302;18.736;2023-05-07T04:30:37;2.10;;;1.90;;
21438;SDS011;10880;50.302;18.736;2023-05-07T04:33:15;2.30;;;2.10;;
21438;SDS011;10880;50.302;18.736;2023-05-07T04:39:22;1.83;;;1.73;;
21438;SDS011;10880;50.302;18.736;2023-05-07T04:42:16;1.90;;;1.80;;
21438;SDS011;10880;50.302;18.736;2023-05-07T04:44:52;1.93;;;1.83;;
21438;SDS011;10880;50.302;18.736;2023-05-07T04:47:48;2.40;;;2.10;;
21438;SDS011;10880;50.302;18.736;2023-05-07T04:50:23;2.03;;;1.80;;
21438;SDS011;10880;50.302;18.736;2023-05-07T04:53:17;1.80;;;1.70;;
21438;SDS011;10880;50.302;18.736;2023-05-07T04:55:56;1.70;;;1.60;;
21438;SDS011;10880;50.302;18.736;2023-05-07T04:58:59;1.90;;;1.80;;
21438;SDS011;10880;50.302;18.736;2023-05-07T05:01:55;1.60;;;1.50;;
21438;SDS011;10880;50.302;18.736;2023-05-07T05:04:28;1.60;;;1.50;;
21438;SDS011;10880;50.302;18.736;2023-05-07T05:07:22;1.63;;;1.53;;
21438;SDS011;10880;50.302;18.736;2023-05-07T05:09:56;1.73;;;1.63;;
21438;SDS011;10880;50.302;18.736;2023-05-07T05:12:51;2.10;;;1.90;;
21438;SDS011;10880;50.302;18.736;2023-05-07T05:15:25;2.73;;;2.27;;
21438;SDS011;10880;50.302;18.736;2023-05-07T05:18:19;1.97;;;1.77;;
21438;SDS011;10880;50.302;18.736;2023-05-07T05:20:52;2.13;;;1.80;;
21438;SDS011;10880;50.302;18.736;2023-05-07T05:23:46;2.30;;;2.10;;
21438;SDS011;10880;50.302;18.736;2023-05-07T05:26:26;2.33;;;2.20;;
21438;SDS011;10880;50.302;18.736;2023-05-07T05:29:19;2.13;;;1.90;;
21438;SDS011;10880;50.302;18.736;2023-05-07T05:31:55;1.90;;;1.80;;
21438;SDS011;10880;50.302;18.736;2023-05-07T05:34:49;2.20;;;2.00;;
21438;SDS011;10880;50.302;18.736;2023-05-07T05:37:23;2.10;;;2.00;;
21438;SDS011;10880;50.302;18.736;2023-05-07T05:40:18;2.00;;;1.90;;
21438;SDS011;10880;50.302;18.736;2023-05-07T05:42:51;2.07;;;1.97;;
21438;SDS011;10880;50.302;18.736;2023-05-07T05:45:44;1.87;;;1.77;;
21438;SDS011;10880;50.302;18.736;2023-05-07T05:48:17;2.03;;;1.93;;
21438;SDS011;10880;50.302;18.736;2023-05-07T05:51:14;2.23;;;2.00;;
21438;SDS011;10880;50.302;18.736;2023-05-07T05:53:48;2.27;;;2.00;;
21438;SDS011;10880;50.302;18.736;2023-05-07T05:56:43;3.10;;;2.27;;
21438;SDS011;10880;50.302;18.736;2023-05-07T05:59:23;3.67;;;2.43;;
21438;SDS011;10880;50.302;18.736;2023-05-07T06:02:20;2.67;;;2.00;;
21438;SDS011;10880;50.302;18.736;2023-05-07T06:04:53;3.20;;;2.33;;
21438;SDS011;10880;50.302;18.736;2023-05-07T06:07:49;2.57;;;2.30;;
21438;SDS011;10880;50.302;18.736;2023-05-07T06:10:25;3.30;;;2.40;;
21438;SDS011;10880;50.302;18.736;2023-05-07T06:13:20;2.87;;;2.30;;
21438;SDS011;10880;50.302;18.736;2023-05-07T06:15:53;2.50;;;2.30;;
21438;SDS011;10880;50.302;18.736;2023-05-07T06:18:49;2.27;;;2.07;;
21438;SDS011;10880;50.302;18.736;2023-05-07T06:21:26;1.73;;;1.63;;
21438;SDS011;10880;50.302;18.736;2023-05-07T06:24:19;1.97;;;1.87;;
21438;SDS011;10880;50.302;18.736;2023-05-07T06:26:53;2.20;;;2.00;;
21438;SDS011;10880;50.302;18.736;2023-05-07T06:29:48;3.87;;;3.07;;
21438;SDS011;10880;50.302;18.736;2023-05-07T06:32:21;3.57;;;2.80;;
21438;SDS011;10880;50.302;18.736;2023-05-07T06:35:17;3.53;;;2.77;;
21438;SDS011;10880;50.302;18.736;2023-05-07T06:37:51;2.87;;;2.57;;
21438;SDS011;10880;50.302;18.736;2023-05-07T06:40:47;2.40;;;2.20;;
21438;SDS011;10880;50.302;18.736;2023-05-07T06:43:22;2.30;;;2.10;;
21438;SDS011;10880;50.302;18.736;2023-05-07T06:46:59;2.03;;;1.90;;
21438;SDS011;10880;50.302;18.736;2023-05-07T06:49:52;3.03;;;2.37;;
21438;SDS011;10880;50.302;18.736;2023-05-07T06:52:59;3.33;;;2.50;;
21438;SDS011;10880;50.302;18.736;2023-05-07T06:55:45;2.73;;;2.33;;
21438;SDS011;10880;50.302;18.736;2023-05-07T06:58:52;2.20;;;2.00;;
21438;SDS011;10880;50.302;18.736;2023-05-07T07:02:13;3.30;;;2.40;;
21438;SDS011;10880;50.302;18.736;2023-05-07T07:04:50;2.50;;;2.30;;
21438;SDS011;10880;50.302;18.736;2023-05-07T07:07:50;2.60;;;2.40;;
21438;SDS011;10880;50.302;18.736;2023-05-07T07:10:25;2.10;;;1.97;;
21438;SDS011;10880;50.302;18.736;2023-05-07T07:13:19;2.40;;;2.20;;
21438;SDS011;10880;50.302;18.736;2023-05-07T07:15:54;2.27;;;2.07;;
21438;SDS011;10880;50.302;18.736;2023-05-07T07:18:48;2.20;;;2.10;;
21438;SDS011;10880;50.302;18.736;2023-05-07T07:21:21;2.13;;;1.90;;
21438;SDS011;10880;50.302;18.736;2023-05-07T07:24:14;2.20;;;2.00;;
21438;SDS011;10880;50.302;18.736;2023-05-07T07:26:57;2.43;;;2.23;;
21438;SDS011;10880;50.302;18.736;2023-05-07T07:29:50;1.87;;;1.77;;
21438;SDS011;10880;50.302;18.736;2023-05-07T07:32:24;2.10;;;1.90;;
21438;SDS011;10880;50.302;18.736;2023-05-07T07:35:18;2.30;;;2.20;;
21438;SDS011;10880;50.302;18.736;2023-05-07T07:37:51;2.30;;;2.10;;
21438;SDS011;10880;50.302;18.736;2023-05-07T07:40:44;2.13;;;2.00;;
21438;SDS011;10880;50.302;18.736;2023-05-07T07:43:18;2.30;;;2.10;;
21438;SDS011;10880;50.302;18.736;2023-05-07T07:46:18;2.40;;;2.20;;
21438;SDS011;10880;50.302;18.736;2023-05-07T07:48:53;2.63;;;2.43;;
21438;SDS011;10880;50.302;18.736;2023-05-07T07:51:50;2.27;;;2.17;;
21438;SDS011;10880;50.302;18.736;2023-05-07T07:54:23;2.27;;;2.10;;
21438;SDS011;10880;50.302;18.736;2023-05-07T07:57:18;2.13;;;2.03;;
21438;SDS011;10880;50.302;18.736;2023-05-07T07:59:51;3.10;;;2.20;;
21438;SDS011;10880;50.302;18.736;2023-05-07T08:02:55;2.10;;;1.90;;
21438;SDS011;10880;50.302;18.736;2023-05-07T08:05:34;2.37;;;1.90;;
21438;SDS011;10880;50.302;18.736;2023-05-07T08:08:30;1.80;;;1.70;;
21438;SDS011;10880;50.302;18.736;2023-05-07T08:11:07;1.80;;;1.70;;
21438;SDS011;10880;50.302;18.736;2023-05-07T08:14:03;1.80;;;1.70;;
21438;SDS011;10880;50.302;18.736;2023-05-07T08:16:49;2.20;;;2.00;;
21438;SDS011;10880;50.302;18.736;2023-05-07T08:19:49;2.13;;;1.93;;
21438;SDS011;10880;50.302;18.736;2023-05-07T08:22:24;1.90;;;1.80;;
21438;SDS011;10880;50.302;18.736;2023-05-07T08:25:20;2.40;;;2.20;;
21438;SDS011;10880;50.302;18.736;2023-05-07T08:27:55;2.50;;;2.20;;
21438;SDS011;10880;50.302;18.736;2023-05-07T08:30:59;2.50;;;2.30;;
21438;SDS011;10880;50.302;18.736;2023-05-07T08:33:40;2.40;;;2.20;;
21438;SDS011;10880;50.302;18.736;2023-05-07T08:36:40;2.20;;;2.10;;
21438;SDS011;10880;50.302;18.736;2023-05-07T08:39:17;2.50;;;2.30;;
21438;SDS011;10880;50.302;18.736;2023-05-07T08:42:11;2.30;;;2.10;;
21438;SDS011;10880;50.302;18.736;2023-05-07T08:44:45;2.30;;;2.10;;
21438;SDS011;10880;50.302;18.736;2023-05-07T08:47:46;2.57;;;2.37;;
21438;SDS011;10880;50.302;18.736;2023-05-07T08:50:25;2.77;;;2.57;;
21438;SDS011;10880;50.302;18.736;2023-05-07T08:53:19;2.67;;;2.47;;
21438;SDS011;10880;50.302;18.736;2023-05-07T08:55:53;2.73;;;2.30;;
21438;SDS011;10880;50.302;18.736;2023-05-07T08:58:49;2.63;;;2.10;;
21438;SDS011;10880;50.302;18.736;2023-05-07T09:01:25;2.50;;;2.30;;
21438;SDS011;10880;50.302;18.736;2023-05-07T09:04:19;3.00;;;2.27;;
21438;SDS011;10880;50.302;18.736;2023-05-07T09:06:52;2.20;;;2.10;;
21438;SDS011;10880;50.302;18.736;2023-05-07T09:09:57;2.23;;;2.03;;
21438;SDS011;10880;50.302;18.736;2023-05-07T09:12:35;2.20;;;2.10;;
21438;SDS011;10880;50.302;18.736;2023-05-07T09:15:30;2.20;;;2.10;;
21438;SDS011;10880;50.302;18.736;2023-05-07T09:18:04;2.60;;;2.40;;
21438;SDS011;10880;50.302;18.736;2023-05-07T09:20:59;2.10;;;1.90;;
21438;SDS011;10880;50.302;18.736;2023-05-07T09:23:32;2.47;;;2.37;;
21438;SDS011;10880;50.302;18.736;2023-05-07T09:26:26;1.80;;;1.70;;
21438;SDS011;10880;50.302;18.736;2023-05-07T09:29:00;1.93;;;1.83;;
21438;SDS011;10880;50.302;18.736;2023-05-07T09:31:53;2.00;;;1.90;;
21438;SDS011;10880;50.302;18.736;2023-05-07T09:34:29;2.60;;;2.40;;
21438;SDS011;10880;50.302;18.736;2023-05-07T09:37:22;2.67;;;2.40;;
21438;SDS011;10880;50.302;18.736;2023-05-07T09:39:55;2.50;;;2.30;;
21438;SDS011;10880;50.302;18.736;2023-05-07T09:42:48;2.40;;;2.20;;
21438;SDS011;10880;50.302;18.736;2023-05-07T09:45:27;2.40;;;2.20;;
21438;SDS011;10880;50.302;18.736;2023-05-07T09:48:21;2.97;;;2.50;;
21438;SDS011;10880;50.302;18.736;2023-05-07T09:50:58;3.17;;;2.53;;
21438;SDS011;10880;50.302;18.736;2023-05-07T09:54:28;2.50;;;2.13;;
21438;SDS011;10880;50.302;18.736;2023-05-07T09:57:03;2.40;;;2.20;;
21438;SDS011;10880;50.302;18.736;2023-05-07T10:00:04;3.13;;;2.60;;
21438;SDS011;10880;50.302;18.736;2023-05-07T10:03:00;3.57;;;2.47;;
21438;SDS011;10880;50.302;18.736;2023-05-07T10:05:50;3.17;;;2.77;;
21438;SDS011;10880;50.302;18.736;2023-05-07T10:08:43;2.73;;;2.40;;
21438;SDS011;10880;50.302;18.736;2023-05-07T10:11:17;2.40;;;2.20;;
21438;SDS011;10880;50.302;18.736;2023-05-07T10:14:14;2.30;;;2.10;;
21438;SDS011;10880;50.302;18.736;2023-05-07T10:16:48;2.23;;;2.03;;
21438;SDS011;10880;50.302;18.736;2023-05-07T10:19:43;2.00;;;1.90;;
21438;SDS011;10880;50.302;18.736;2023-05-07T10:22:20;2.00;;;1.90;;
21438;SDS011;10880;50.302;18.736;2023-05-07T10:25:16;2.20;;;2.10;;
21438;SDS011;10880;50.302;18.736;2023-05-07T10:27:53;1.93;;;1.83;;
21438;SDS011;10880;50.302;18.736;2023-05-07T10:30:58;2.20;;;2.00;;
21438;SDS011;10880;50.302;18.736;2023-05-07T10:33:45;2.03;;;1.93;;
21438;SDS011;10880;50.302;18.736;2023-05-07T10:36:43;2.67;;;2.00;;
21438;SDS011;10880;50.302;18.736;2023-05-07T10:39:17;3.07;;;2.33;;
21438;SDS011;10880;50.302;18.736;2023-05-07T10:42:13;2.87;;;2.33;;
21438;SDS011;10880;50.302;18.736;2023-05-07T10:44:51;2.53;;;2.30;;
21438;SDS011;10880;50.302;18.736;2023-05-07T10:50:44;2.57;;;2.13;;
21438;SDS011;10880;50.302;18.736;2023-05-07T10:53:37;1.90;;;1.80;;
21438;SDS011;10880;50.302;18.736;2023-05-07T10:59:35;1.87;;;1.77;;
21438;SDS011;10880;50.302;18.736;2023-05-07T11:05:42;1.80;;;1.70;;
21438;SDS011;10880;50.302;18.736;2023-05-07T11:11:46;2.30;;;2.10;;
21438;SDS011;10880;50.302;18.736;2023-05-07T11:14:49;2.17;;;1.97;;
21438;SDS011;10880;50.302;18.736;2023-05-07T11:17:32;2.23;;;2.13;;
21438;SDS011;10880;50.302;18.736;2023-05-07T11:26:44;2.00;;;1.90;;
21438;SDS011;10880;50.302;18.736;2023-05-07T11:29:26;2.10;;;2.00;;
21438;SDS011;10880;50.302;18.736;2023-05-07T11:32:27;2.00;;;1.90;;
21438;SDS011;10880;50.302;18.736;2023-05-07T11:35:03;2.43;;;2.23;;
21438;SDS011;10880;50.302;18.736;2023-05-07T11:37:59;2.10;;;2.00;;
21438;SDS011;10880;50.302;18.736;2023-05-07T11:40:34;2.10;;;2.00;;
21438;SDS011;10880;50.302;18.736;2023-05-07T11:43:28;2.20;;;2.00;;
21438;SDS011;10880;50.302;18.736;2023-05-07T11:46:19;3.20;;;2.00;;
21438;SDS011;10880;50.302;18.736;2023-05-07T11:49:12;1.97;;;1.87;;
21438;SDS011;10880;50.302;18.736;2023-05-07T11:51:45;2.20;;;2.00;;
21438;SDS011;10880;50.302;18.736;2023-05-07T11:54:38;2.20;;;2.00;;
21438;SDS011;10880;50.302;18.736;2023-05-07T11:57:14;2.20;;;2.00;;
21438;SDS011;10880;50.302;18.736;2023-05-07T12:00:15;2.23;;;2.03;;
21438;SDS011;10880;50.302;18.736;2023-05-07T12:03:08;2.00;;;1.90;;
21438;SDS011;10880;50.302;18.736;2023-05-07T12:05:42;2.17;;;2.03;;
21438;SDS011;10880;50.302;18.736;2023-05-07T12:08:38;1.90;;;1.80;;
21438;SDS011;10880;50.302;18.736;2023-05-07T12:11:21;2.40;;;2.20;;
21438;SDS011;10880;50.302;18.736;2023-05-07T12:14:15;2.23;;;2.13;;
21438;SDS011;10880;50.302;18.736;2023-05-07T12:16:48;2.33;;;2.13;;
21438;SDS011;10880;50.302;18.736;2023-05-07T12:19:42;2.20;;;2.00;;
21438;SDS011;10880;50.302;18.736;2023-05-07T12:22:19;2.13;;;1.97;;
21438;SDS011;10880;50.302;18.736;2023-05-07T12:25:12;2.47;;;2.23;;
21438;SDS011;10880;50.302;18.736;2023-05-07T12:27:52;2.50;;;2.30;;
21438;SDS011;10880;50.302;18.736;2023-05-07T12:30:46;2.40;;;2.20;;
21438;SDS011;10880;50.302;18.736;2023-05-07T12:33:25;2.00;;;1.90;;
21438;SDS011;10880;50.302;18.736;2023-05-07T12:36:18;2.00;;;1.90;;
21438;SDS011;10880;50.302;18.736;2023-05-07T12:38:53;2.00;;;1.90;;
21438;SDS011;10880;50.302;18.736;2023-05-07T12:41:52;2.10;;;2.00;;
21438;SDS011;10880;50.302;18.736;2023-05-07T12:44:31;2.03;;;1.90;;
21438;SDS011;10880;50.302;18.736;2023-05-07T12:47:25;2.00;;;1.90;;
21438;SDS011;10880;50.302;18.736;2023-05-07T12:49:58;2.47;;;2.10;;
21438;SDS011;10880;50.302;18.736;2023-05-07T12:52:56;2.40;;;2.20;;
21438;SDS011;10880;50.302;18.736;2023-05-07T12:55:29;2.50;;;2.30;;
21438;SDS011;10880;50.302;18.736;2023-05-07T13:01:01;3.20;;;2.90;;
21438;SDS011;10880;50.302;18.736;2023-05-07T13:04:07;2.87;;;2.57;;
21438;SDS011;10880;50.302;18.736;2023-05-07T13:06:40;2.43;;;2.17;;
21438;SDS011;10880;50.302;18.736;2023-05-07T13:09:33;2.33;;;2.13;;
21438;SDS011;10880;50.302;18.736;2023-05-07T13:12:09;2.20;;;2.00;;
21438;SDS011;10880;50.302;18.736;2023-05-07T13:15:05;2.40;;;2.20;;
21438;SDS011;10880;50.302;18.736;2023-05-07T13:17:41;2.63;;;2.10;;
21438;SDS011;10880;50.302;18.736;2023-05-07T13:20:35;2.50;;;2.30;;
21438;SDS011;10880;50.302;18.736;2023-05-07T13:23:09;2.37;;;2.17;;
21438;SDS011;10880;50.302;18.736;2023-05-07T13:26:07;2.73;;;2.53;;
21438;SDS011;10880;50.302;18.736;2023-05-07T13:28:44;3.07;;;2.40;;
21438;SDS011;10880;50.302;18.736;2023-05-07T13:31:37;3.00;;;2.70;;
21438;SDS011;10880;50.302;18.736;2023-05-07T13:34:15;2.97;;;2.40;;
21438;SDS011;10880;50.302;18.736;2023-05-07T13:37:11;3.03;;;2.60;;
21438;SDS011;10880;50.302;18.736;2023-05-07T13:39:44;3.63;;;2.97;;
21438;SDS011;10880;50.302;18.736;2023-05-07T13:42:38;2.50;;;2.30;;
21438;SDS011;10880;50.302;18.736;2023-05-07T13:45:11;2.80;;;2.37;;
21438;SDS011;10880;50.302;18.736;2023-05-07T13:48:04;2.97;;;2.30;;
21438;SDS011;10880;50.302;18.736;2023-05-07T13:50:37;2.70;;;2.50;;
21438;SDS011;10880;50.302;18.736;2023-05-07T13:53:30;2.33;;;2.13;;
21438;SDS011;10880;50.302;18.736;2023-05-07T13:56:03;2.17;;;2.07;;
21438;SDS011;10880;50.302;18.736;2023-05-07T13:58:56;2.47;;;2.27;;
21438;SDS011;10880;50.302;18.736;2023-05-07T14:01:29;2.70;;;2.50;;
21438;SDS011;10880;50.302;18.736;2023-05-07T14:04:25;2.50;;;2.30;;
21438;SDS011;10880;50.302;18.736;2023-05-07T14:06:58;2.10;;;2.00;;
21438;SDS011;10880;50.302;18.736;2023-05-07T14:09:52;2.50;;;2.30;;
21438;SDS011;10880;50.302;18.736;2023-05-07T14:12:27;2.10;;;2.00;;
21438;SDS011;10880;50.302;18.736;2023-05-07T14:15:20;3.20;;;2.50;;
21438;SDS011;10880;50.302;18.736;2023-05-07T14:17:53;3.57;;;2.40;;
21438;SDS011;10880;50.302;18.736;2023-05-07T14:20:48;4.33;;;3.33;;
21438;SDS011;10880;50.302;18.736;2023-05-07T14:23:21;4.37;;;3.57;;
21438;SDS011;10880;50.302;18.736;2023-05-07T14:26:14;4.00;;;3.10;;
21438;SDS011;10880;50.302;18.736;2023-05-07T14:28:48;3.10;;;2.70;;
21438;SDS011;10880;50.302;18.736;2023-05-07T14:31:47;3.13;;;2.60;;
21438;SDS011;10880;50.302;18.736;2023-05-07T14:34:24;3.63;;;3.20;;
21438;SDS011;10880;50.302;18.736;2023-05-07T14:37:19;2.90;;;2.60;;
21438;SDS011;10880;50.302;18.736;2023-05-07T14:39:52;2.90;;;2.60;;
21438;SDS011;10880;50.302;18.736;2023-05-07T14:42:50;2.70;;;2.50;;
21438;SDS011;10880;50.302;18.736;2023-05-07T14:45:27;2.80;;;2.60;;
21438;SDS011;10880;50.302;18.736;2023-05-07T14:48:20;4.57;;;3.50;;
21438;SDS011;10880;50.302;18.736;2023-05-07T14:50:53;5.77;;;4.57;;
21438;SDS011;10880;50.302;18.736;2023-05-07T14:53:50;5.27;;;4.23;;
21438;SDS011;10880;50.302;18.736;2023-05-07T14:56:23;4.33;;;3.50;;
21438;SDS011;10880;50.302;18.736;2023-05-07T14:59:16;4.00;;;3.17;;
21438;SDS011;10880;50.302;18.736;2023-05-07T15:01:53;3.20;;;2.90;;
21438;SDS011;10880;50.302;18.736;2023-05-07T15:04:46;3.77;;;2.60;;
21438;SDS011;10880;50.302;18.736;2023-05-07T15:07:20;3.27;;;2.90;;
21438;SDS011;10880;50.302;18.736;2023-05-07T15:10:14;2.80;;;2.33;;
21438;SDS011;10880;50.302;18.736;2023-05-07T15:12:48;2.50;;;2.30;;
21438;SDS011;10880;50.302;18.736;2023-05-07T15:15:45;2.47;;;2.27;;
21438;SDS011;10880;50.302;18.736;2023-05-07T15:18:19;2.43;;;2.23;;
21438;SDS011;10880;50.302;18.736;2023-05-07T15:21:24;3.00;;;2.60;;
21438;SDS011;10880;50.302;18.736;2023-05-07T15:24:01;5.60;;;3.30;;
21438;SDS011;10880;50.302;18.736;2023-05-07T15:26:59;5.83;;;3.20;;
21438;SDS011;10880;50.302;18.736;2023-05-07T15:29:36;5.87;;;3.47;;
21438;SDS011;10880;50.302;18.736;2023-05-07T15:32:31;4.13;;;2.80;;
21438;SDS011;10880;50.302;18.736;2023-05-07T15:35:06;4.20;;;3.80;;
21438;SDS011;10880;50.302;18.736;2023-05-07T15:38:00;3.53;;;3.13;;
21438;SDS011;10880;50.302;18.736;2023-05-07T15:40:35;4.63;;;3.30;;
21438;SDS011;10880;50.302;18.736;2023-05-07T15:43:31;4.33;;;3.63;;
21438;SDS011;10880;50.302;18.736;2023-05-07T15:46:04;5.33;;;3.57;;
21438;SDS011;10880;50.302;18.736;2023-05-07T15:48:57;5.67;;;3.73;;
21438;SDS011;10880;50.302;18.736;2023-05-07T15:51:34;4.40;;;3.33;;
21438;SDS011;10880;50.302;18.736;2023-05-07T15:54:30;4.77;;;3.77;;
21438;SDS011;10880;50.302;18.736;2023-05-07T15:57:03;3.00;;;2.70;;
21438;SDS011;10880;50.302;18.736;2023-05-07T15:59:57;3.37;;;2.87;;
21438;SDS011;10880;50.302;18.736;2023-05-07T16:02:53;3.30;;;2.90;;
21438;SDS011;10880;50.302;18.736;2023-05-07T16:05:46;2.67;;;2.47;;
21438;SDS011;10880;50.302;18.736;2023-05-07T16:08:19;3.37;;;3.00;;
21438;SDS011;10880;50.302;18.736;2023-05-07T16:11:14;4.30;;;3.10;;
21438;SDS011;10880;50.302;18.736;2023-05-07T16:13:55;4.20;;;3.40;;
21438;SDS011;10880;50.302;18.736;2023-05-07T16:16:51;3.90;;;3.13;;
21438;SDS011;10880;50.302;18.736;2023-05-07T16:19:26;4.10;;;3.10;;
21438;SDS011;10880;50.302;18.736;2023-05-07T16:22:19;3.83;;;3.37;;
21438;SDS011;10880;50.302;18.736;2023-05-07T16:24:54;4.33;;;3.33;;
21438;SDS011;10880;50.302;18.736;2023-05-07T16:27:47;4.37;;;3.30;;
21438;SDS011;10880;50.302;18.736;2023-05-07T16:30:20;4.47;;;3.40;;
21438;SDS011;10880;50.302;18.736;2023-05-07T16:33:13;4.57;;;3.77;;
21438;SDS011;10880;50.302;18.736;2023-05-07T16:35:53;3.87;;;3.40;;
21438;SDS011;10880;50.302;18.736;2023-05-07T16:38:47;3.50;;;3.20;;
21438;SDS011;10880;50.302;18.736;2023-05-07T16:41:21;3.40;;;2.73;;
21438;SDS011;10880;50.302;18.736;2023-05-07T16:44:15;4.00;;;3.00;;
21438;SDS011;10880;50.302;18.736;2023-05-07T16:46:49;4.07;;;3.20;;
21438;SDS011;10880;50.302;18.736;2023-05-07T16:49:42;4.23;;;3.23;;